createdAt,value
2017-04-27T00:00:36.499Z,99.99
2017-04-27T00:01:37.109Z,99.99
2017-04-27T00:02:37.716Z,99.99
2017-04-27T00:03:38.302Z,99.99
2017-04-27T00:04:38.904Z,99.99
2017-04-27T00:05:39.511Z,99.99
2017-04-27T00:06:40.119Z,99.99
2017-04-27T00:07:40.705Z,99.99
2017-04-27T00:08:41.303Z,99.99
2017-04-27T00:09:41.909Z,99.99
2017-04-27T00:10:42.503Z,99.99
2017-04-27T00:11:43.100Z,99.99
2017-04-27T00:12:43.708Z,99.99
2017-04-27T00:13:44.318Z,99.99
2017-04-27T00:14:44.908Z,99.99
2017-04-27T00:15:45.515Z,99.99
2017-04-27T00:16:46.120Z,99.99
2017-04-27T00:17:46.714Z,99.99
2017-04-27T00:18:47.322Z,99.99
2017-04-27T00:19:47.929Z,99.99
2017-04-27T00:20:48.526Z,99.99
2017-04-27T00:21:49.126Z,99.99
2017-04-27T00:22:49.729Z,99.99
2017-04-27T00:23:50.320Z,99.99
2017-04-27T00:24:50.919Z,99.99
2017-04-27T00:25:51.525Z,99.99
2017-04-27T00:26:52.127Z,99.99
2017-04-27T00:27:52.719Z,99.99
2017-04-27T00:28:53.325Z,99.99
2017-04-27T00:29:53.928Z,99.99
2017-04-27T00:30:54.525Z,99.99
2017-04-27T00:31:55.126Z,99.99
2017-04-27T00:32:55.727Z,99.99
2017-04-27T00:33:56.323Z,99.99
2017-04-27T00:34:56.924Z,99.99
2017-04-27T00:35:57.514Z,99.99
2017-04-27T00:36:58.114Z,99.99
2017-04-27T00:37:58.706Z,99.99
2017-04-27T00:38:59.299Z,99.99
2017-04-27T00:39:59.904Z,99.99
2017-04-27T00:41:00.507Z,99.99
2017-04-27T00:42:01.102Z,99.99
2017-04-27T00:43:01.694Z,99.99
2017-04-27T00:44:02.294Z,99.99
2017-04-27T00:45:02.898Z,99.99
2017-04-27T00:46:03.501Z,99.99
2017-04-27T00:47:04.101Z,99.99
2017-04-27T00:48:04.707Z,99.99
2017-04-27T00:49:05.309Z,99.99
2017-04-27T00:50:05.902Z,99.99
2017-04-27T00:51:06.537Z,99.99
2017-04-27T00:52:07.114Z,99.99
2017-04-27T00:53:07.706Z,99.99
2017-04-27T00:54:08.294Z,99.99
2017-04-27T00:55:08.898Z,99.99
2017-04-27T00:56:09.501Z,99.99
2017-04-27T00:57:10.106Z,99.99
2017-04-27T00:58:10.708Z,99.99
2017-04-27T00:59:11.325Z,99.99
2017-04-27T01:00:11.907Z,99.99
2017-04-27T01:01:12.525Z,99.99
2017-04-27T01:02:13.116Z,99.99
2017-04-27T01:03:13.711Z,99.99
2017-04-27T01:04:14.315Z,99.99
2017-04-27T01:05:14.917Z,99.99
2017-04-27T01:06:15.519Z,99.99
2017-04-27T01:07:16.111Z,99.99
2017-04-27T01:08:16.700Z,99.99
2017-04-27T01:09:17.303Z,99.99
2017-04-27T01:10:17.903Z,99.99
2017-04-27T01:11:18.503Z,99.99
2017-04-27T01:12:19.110Z,99.99
2017-04-27T01:13:19.725Z,99.99
2017-04-27T01:14:20.341Z,99.99
2017-04-27T01:15:20.932Z,99.99
2017-04-27T01:16:21.537Z,99.99
2017-04-27T01:17:22.129Z,99.99
2017-04-27T01:18:22.731Z,99.99
2017-04-27T01:19:23.329Z,99.99
2017-04-27T01:20:23.933Z,99.99
2017-04-27T01:21:24.536Z,99.99
2017-04-27T01:22:25.129Z,99.99
2017-04-27T01:23:25.720Z,99.99
2017-04-27T01:24:26.323Z,99.99
2017-04-27T01:25:26.930Z,99.99
2017-04-27T01:26:27.580Z,99.99
2017-04-27T01:27:28.173Z,99.99
2017-04-27T01:28:28.761Z,99.99
2017-04-27T01:29:29.369Z,99.99
2017-04-27T01:30:29.970Z,99.99
2017-04-27T01:31:30.628Z,99.99
2017-04-27T01:32:31.234Z,99.99
2017-04-27T01:33:31.825Z,99.99
2017-04-27T01:34:32.421Z,99.99
2017-04-27T01:35:33.012Z,99.99
2017-04-27T01:36:33.601Z,99.99
2017-04-27T01:37:34.192Z,99.99
2017-04-27T01:38:34.786Z,99.99
2017-04-27T01:39:35.392Z,99.99
2017-04-27T01:40:35.996Z,99.99
2017-04-27T01:41:36.589Z,99.99
2017-04-27T01:42:37.194Z,99.99
2017-04-27T01:43:37.804Z,99.99
2017-04-27T01:44:38.401Z,99.99
2017-04-27T01:45:39.007Z,99.99
2017-04-27T01:46:39.600Z,99.99
2017-04-27T01:47:40.191Z,99.99
2017-04-27T01:48:40.786Z,99.99
2017-04-27T01:49:41.388Z,99.99
2017-04-27T01:50:41.989Z,99.99
2017-04-27T01:51:42.591Z,99.99
2017-04-27T01:52:43.194Z,99.99
2017-04-27T01:53:43.784Z,99.99
2017-04-27T01:54:44.386Z,99.99
2017-04-27T01:55:44.987Z,99.99
2017-04-27T01:56:45.580Z,99.99
2017-04-27T01:57:46.174Z,99.99
2017-04-27T01:58:46.768Z,99.99
2017-04-27T01:59:47.370Z,99.99
2017-04-27T02:00:47.978Z,99.99
2017-04-27T02:01:48.575Z,99.99
2017-04-27T02:02:49.179Z,99.99
2017-04-27T02:03:49.785Z,99.99
2017-04-27T02:04:50.373Z,99.99
2017-04-27T02:05:51.022Z,99.99
2017-04-27T02:06:51.626Z,99.99
2017-04-27T02:07:52.235Z,99.99
2017-04-27T02:08:52.838Z,99.99
2017-04-27T02:09:53.447Z,99.99
2017-04-27T02:10:54.034Z,99.99
2017-04-27T02:11:54.638Z,99.99
2017-04-27T02:12:55.250Z,99.99
2017-04-27T02:13:55.852Z,99.99
2017-04-27T02:14:56.444Z,99.99
2017-04-27T02:15:57.045Z,99.99
2017-04-27T02:16:57.635Z,99.99
2017-04-27T02:17:58.236Z,99.99
2017-04-27T02:18:58.826Z,99.99
2017-04-27T02:19:59.416Z,99.99
2017-04-27T02:21:00.010Z,99.99
2017-04-27T02:22:00.604Z,99.99
2017-04-27T02:23:01.208Z,99.99
2017-04-27T02:24:01.809Z,99.99
2017-04-27T02:25:02.411Z,99.99
2017-04-27T02:26:03.000Z,99.99
2017-04-27T02:27:03.593Z,99.99
2017-04-27T02:28:04.198Z,99.99
2017-04-27T02:29:04.801Z,99.99
2017-04-27T02:30:05.408Z,99.99
2017-04-27T02:31:06.052Z,99.99
2017-04-27T02:32:06.639Z,99.99
2017-04-27T02:33:07.243Z,99.99
2017-04-27T02:34:07.853Z,99.99
2017-04-27T02:35:08.443Z,99.99
2017-04-27T02:36:09.036Z,99.99
2017-04-27T02:37:09.628Z,99.99
2017-04-27T02:38:10.223Z,99.99
2017-04-27T02:39:10.821Z,99.99
2017-04-27T02:40:11.423Z,99.99
2017-04-27T02:41:12.015Z,99.99
2017-04-27T02:42:12.613Z,99.99
2017-04-27T02:43:13.217Z,99.99
2017-04-27T02:44:13.821Z,99.99
2017-04-27T02:45:14.428Z,99.99
2017-04-27T02:46:15.020Z,99.99
2017-04-27T02:47:15.625Z,99.99
2017-04-27T02:48:16.236Z,99.99
2017-04-27T02:49:16.834Z,99.99
2017-04-27T02:50:17.427Z,99.99
2017-04-27T02:51:18.022Z,99.99
2017-04-27T02:52:18.612Z,99.99
2017-04-27T02:53:19.214Z,99.99
2017-04-27T02:54:19.803Z,99.99
2017-04-27T02:55:20.404Z,99.99
2017-04-27T02:56:20.995Z,99.99
2017-04-27T02:57:21.597Z,99.99
2017-04-27T02:58:22.204Z,99.99
2017-04-27T02:59:22.808Z,99.99
2017-04-27T03:00:23.414Z,99.99
2017-04-27T03:01:24.004Z,99.99
2017-04-27T03:02:24.610Z,99.99
2017-04-27T03:03:25.212Z,99.99
2017-04-27T03:04:25.805Z,99.99
2017-04-27T03:05:26.407Z,99.99
2017-04-27T03:06:27.019Z,99.99
2017-04-27T03:07:27.622Z,99.99
2017-04-27T03:08:28.220Z,99.99
2017-04-27T03:09:28.816Z,99.99
2017-04-27T03:10:29.404Z,99.99
2017-04-27T03:11:30.003Z,99.99
2017-04-27T03:12:30.612Z,99.99
2017-04-27T03:13:31.223Z,99.99
2017-04-27T03:14:31.821Z,99.99
2017-04-27T03:15:32.432Z,99.99
2017-04-27T03:16:33.067Z,99.99
2017-04-27T03:17:33.673Z,99.99
2017-04-27T03:18:34.270Z,99.99
2017-04-27T03:19:34.877Z,99.99
2017-04-27T03:20:35.470Z,99.99
2017-04-27T03:21:36.124Z,99.99
2017-04-27T03:22:36.730Z,99.99
2017-04-27T03:23:37.325Z,99.99
2017-04-27T03:24:37.933Z,99.99
2017-04-27T03:25:38.535Z,99.99
2017-04-27T03:26:39.137Z,99.99
2017-04-27T03:27:39.757Z,99.99
2017-04-27T03:28:40.333Z,99.99
2017-04-27T03:29:40.937Z,99.99
2017-04-27T03:30:41.536Z,99.99
2017-04-27T03:31:42.127Z,99.99
2017-04-27T03:32:42.721Z,99.99
2017-04-27T03:33:43.314Z,99.99
2017-04-27T03:34:43.902Z,99.99
2017-04-27T03:35:44.503Z,99.99
2017-04-27T03:36:45.097Z,99.99
2017-04-27T03:37:45.701Z,99.99
2017-04-27T03:38:46.304Z,99.99
2017-04-27T03:39:46.894Z,99.99
2017-04-27T03:40:47.494Z,99.99
2017-04-27T03:41:48.147Z,99.99
2017-04-27T03:42:48.750Z,99.99
2017-04-27T03:43:49.350Z,99.99
2017-04-27T03:44:49.943Z,99.99
2017-04-27T03:45:50.531Z,99.99
2017-04-27T03:46:51.125Z,99.99
2017-04-27T03:47:51.722Z,99.99
2017-04-27T03:48:52.330Z,99.99
2017-04-27T03:49:52.937Z,99.99
2017-04-27T03:50:53.540Z,99.99
2017-04-27T03:51:54.126Z,99.99
2017-04-27T03:52:54.720Z,99.99
2017-04-27T03:53:55.327Z,99.99
2017-04-27T03:54:55.919Z,99.99
2017-04-27T03:55:56.523Z,99.99
2017-04-27T03:56:57.182Z,99.99
2017-04-27T03:57:57.793Z,99.99
2017-04-27T03:58:58.399Z,99.99
2017-04-27T03:59:59.004Z,99.99
2017-04-27T04:00:59.594Z,99.99
2017-04-27T04:02:00.186Z,99.99
2017-04-27T04:03:00.776Z,99.99
2017-04-27T04:04:01.380Z,99.99
2017-04-27T04:05:01.971Z,99.99
2017-04-27T04:06:02.564Z,99.99
2017-04-27T04:07:03.175Z,99.99
2017-04-27T04:08:03.788Z,99.99
2017-04-27T04:09:04.392Z,99.99
2017-04-27T04:10:04.987Z,99.99
2017-04-27T04:11:05.599Z,99.99
2017-04-27T04:12:06.209Z,99.99
2017-04-27T04:13:06.804Z,99.99
2017-04-27T04:14:07.411Z,99.99
2017-04-27T04:15:08.014Z,99.99
2017-04-27T04:16:08.620Z,99.99
2017-04-27T04:17:09.220Z,99.99
2017-04-27T04:18:09.828Z,99.99
2017-04-27T04:19:10.419Z,99.99
2017-04-27T04:20:11.023Z,99.99
2017-04-27T04:21:11.629Z,99.99
2017-04-27T04:22:12.240Z,99.99
2017-04-27T04:23:12.849Z,99.99
2017-04-27T04:24:13.443Z,99.99
2017-04-27T04:25:14.091Z,99.99
2017-04-27T04:26:14.682Z,99.99
2017-04-27T04:27:15.279Z,99.99
2017-04-27T04:28:15.878Z,99.99
2017-04-27T04:29:16.488Z,99.99
2017-04-27T04:30:17.091Z,99.99
2017-04-27T04:31:17.688Z,99.99
2017-04-27T04:32:18.291Z,99.99
2017-04-27T04:33:18.902Z,99.99
2017-04-27T04:34:19.510Z,99.99
2017-04-27T04:35:20.107Z,99.99
2017-04-27T04:36:20.768Z,99.99
2017-04-27T04:37:21.376Z,99.99
2017-04-27T04:38:21.987Z,99.99
2017-04-27T04:39:22.592Z,99.99
2017-04-27T04:40:23.187Z,99.99
2017-04-27T04:41:23.844Z,99.99
2017-04-27T04:42:24.441Z,99.99
2017-04-27T04:43:25.053Z,99.99
2017-04-27T04:44:25.648Z,99.99
2017-04-27T04:45:26.257Z,99.99
2017-04-27T04:46:26.865Z,99.99
2017-04-27T04:47:27.471Z,99.99
2017-04-27T04:48:28.083Z,99.99
2017-04-27T04:49:28.681Z,99.99
2017-04-27T04:50:29.274Z,99.99
2017-04-27T04:51:29.886Z,99.99
2017-04-27T04:52:30.500Z,99.99
2017-04-27T04:53:31.097Z,99.99
2017-04-27T04:54:31.703Z,99.99
2017-04-27T04:55:32.310Z,99.99
2017-04-27T04:56:32.965Z,99.99
2017-04-27T04:57:33.565Z,99.99
2017-04-27T04:58:34.163Z,99.99
2017-04-27T04:59:34.841Z,99.99
2017-04-27T05:00:35.368Z,99.99
2017-04-27T05:01:35.968Z,99.99
2017-04-27T05:02:36.579Z,99.99
2017-04-27T05:03:37.196Z,99.99
2017-04-27T05:04:37.803Z,99.99
2017-04-27T05:05:38.405Z,99.99
2017-04-27T05:06:39.015Z,99.99
2017-04-27T05:07:39.626Z,99.99
2017-04-27T05:08:40.226Z,99.99
2017-04-27T05:09:40.837Z,99.99
2017-04-27T05:10:41.447Z,99.99
2017-04-27T05:11:42.060Z,99.99
2017-04-27T05:12:42.673Z,99.99
2017-04-27T05:13:43.287Z,99.99
2017-04-27T05:14:43.889Z,99.99
2017-04-27T05:15:44.501Z,99.97
2017-04-27T05:16:45.113Z,99.40
2017-04-27T05:17:45.726Z,98.16
2017-04-27T05:18:46.328Z,98.69
2017-04-27T05:19:46.930Z,97.17
2017-04-27T05:20:47.541Z,95.84
2017-04-27T05:21:48.142Z,96.03
2017-04-27T05:22:48.745Z,94.79
2017-04-27T05:23:49.358Z,94.03
2017-04-27T05:24:49.976Z,94.08
2017-04-27T05:25:50.636Z,94.37
2017-04-27T05:26:51.244Z,94.93
2017-04-27T05:27:51.849Z,95.22
2017-04-27T05:28:52.482Z,95.51
2017-04-27T05:29:53.078Z,95.51
2017-04-27T05:30:53.673Z,95.36
2017-04-27T05:31:54.276Z,95.84
2017-04-27T05:32:54.890Z,95.74
2017-04-27T05:33:55.488Z,96.31
2017-04-27T05:34:56.097Z,95.65
2017-04-27T05:35:56.696Z,96.31
2017-04-27T05:36:57.310Z,96.31
2017-04-27T05:37:57.915Z,96.78
2017-04-27T05:38:58.524Z,96.78
2017-04-27T05:39:59.127Z,97.07
2017-04-27T05:40:59.740Z,97.83
2017-04-27T05:42:00.341Z,97.64
2017-04-27T05:43:00.955Z,97.36
2017-04-27T05:44:01.566Z,97.40
2017-04-27T05:45:02.169Z,97.17
2017-04-27T05:46:02.778Z,97.50
2017-04-27T05:47:03.377Z,97.78
2017-04-27T05:48:03.974Z,97.55
2017-04-27T05:49:04.594Z,97.74
2017-04-27T05:50:05.261Z,97.78
2017-04-27T05:51:05.878Z,96.45
2017-04-27T05:52:06.481Z,95.46
2017-04-27T05:53:07.092Z,94.51
2017-04-27T05:54:07.709Z,92.99
2017-04-27T05:55:08.328Z,92.90
2017-04-27T05:56:08.943Z,92.51
2017-04-27T05:57:09.558Z,92.90
2017-04-27T05:58:10.183Z,92.42
2017-04-27T05:59:10.781Z,92.32
2017-04-27T06:00:11.399Z,91.85
2017-04-27T06:01:12.015Z,92.90
2017-04-27T06:02:12.631Z,92.27
2017-04-27T06:03:13.272Z,92.18
2017-04-27T06:04:13.889Z,91.04
2017-04-27T06:05:14.551Z,90.00
2017-04-27T06:06:15.171Z,88.85
2017-04-27T06:07:15.777Z,88.15
2017-04-27T06:08:16.383Z,87.57
2017-04-27T06:09:16.991Z,88.34
2017-04-27T06:10:17.619Z,88.43
2017-04-27T06:11:18.234Z,89.38
2017-04-27T06:12:18.851Z,89.67
2017-04-27T06:13:19.465Z,89.23
2017-04-27T06:14:20.085Z,87.05
2017-04-27T06:15:20.701Z,86.63
2017-04-27T06:16:21.314Z,87.48
2017-04-27T06:17:21.929Z,88.67
2017-04-27T06:18:22.554Z,88.61
2017-04-27T06:19:23.169Z,87.23
2017-04-27T06:20:23.778Z,85.57
2017-04-27T06:21:24.395Z,85.71
2017-04-27T06:22:25.017Z,85.47
2017-04-27T06:23:25.638Z,84.08
2017-04-27T06:24:26.245Z,82.79
2017-04-27T06:25:26.913Z,79.49
2017-04-27T06:26:27.566Z,76.73
2017-04-27T06:27:28.190Z,74.92
2017-04-27T06:28:28.808Z,74.92
2017-04-27T06:29:29.447Z,74.35
2017-04-27T06:30:30.177Z,74.54
2017-04-27T06:31:30.808Z,74.48
2017-04-27T06:32:31.450Z,73.91
2017-04-27T06:33:32.073Z,73.08
2017-04-27T06:34:32.700Z,72.51
2017-04-27T06:35:33.391Z,71.41
2017-04-27T06:36:34.025Z,70.13
2017-04-27T06:37:34.656Z,69.78
2017-04-27T06:38:35.273Z,69.05
2017-04-27T06:39:35.928Z,67.81
2017-04-27T06:40:36.564Z,67.01
2017-04-27T06:41:37.188Z,67.33
2017-04-27T06:42:37.820Z,67.24
2017-04-27T06:43:38.443Z,66.76
2017-04-27T06:44:39.068Z,66.22
2017-04-27T06:45:39.740Z,66.41
2017-04-27T06:46:40.370Z,66.16
2017-04-27T06:47:40.998Z,65.01
2017-04-27T06:48:41.628Z,63.48
2017-04-27T06:49:42.257Z,63.00
2017-04-27T06:50:42.888Z,63.67
2017-04-27T06:51:43.520Z,64.43
2017-04-27T06:52:44.153Z,63.60
2017-04-27T06:53:44.791Z,63.42
2017-04-27T06:54:45.404Z,62.27
2017-04-27T06:55:46.038Z,62.62
2017-04-27T06:56:46.681Z,62.43
2017-04-27T06:57:47.312Z,62.97
2017-04-27T06:58:47.947Z,63.67
2017-04-27T06:59:48.563Z,63.70
2017-04-27T07:00:49.196Z,62.40
2017-04-27T07:01:49.832Z,61.60
2017-04-27T07:02:50.462Z,61.38
2017-04-27T07:03:51.070Z,62.14
2017-04-27T07:04:51.698Z,63.19
2017-04-27T07:05:52.376Z,62.33
2017-04-27T07:06:52.990Z,62.04
2017-04-27T07:07:53.614Z,62.08
2017-04-27T07:08:54.236Z,61.12
2017-04-27T07:09:54.865Z,61.02
2017-04-27T07:10:55.546Z,60.77
2017-04-27T07:11:56.180Z,60.03
2017-04-27T07:12:56.795Z,59.72
2017-04-27T07:13:57.423Z,59.62
2017-04-27T07:14:58.051Z,59.81
2017-04-27T07:15:58.692Z,59.08
2017-04-27T07:16:59.317Z,58.53
2017-04-27T07:17:59.971Z,57.50
2017-04-27T07:19:00.608Z,57.15
2017-04-27T07:20:01.236Z,55.80
2017-04-27T07:21:01.903Z,55.71
2017-04-27T07:22:02.541Z,55.62
2017-04-27T07:23:03.196Z,55.52
2017-04-27T07:24:03.850Z,55.52
2017-04-27T07:25:04.518Z,55.42
2017-04-27T07:26:05.149Z,54.49
2017-04-27T07:27:05.782Z,54.01
2017-04-27T07:28:06.402Z,54.01
2017-04-27T07:29:07.022Z,53.91
2017-04-27T07:30:07.661Z,53.91
2017-04-27T07:31:08.295Z,54.01
2017-04-27T07:32:08.924Z,53.66
2017-04-27T07:33:09.543Z,53.53
2017-04-27T07:34:10.162Z,53.63
2017-04-27T07:35:10.777Z,53.44
2017-04-27T07:36:11.407Z,53.44
2017-04-27T07:37:12.022Z,53.15
2017-04-27T07:38:12.642Z,52.67
2017-04-27T07:39:13.285Z,53.27
2017-04-27T07:40:13.897Z,52.86
2017-04-27T07:41:14.532Z,52.74
2017-04-27T07:42:15.171Z,53.31
2017-04-27T07:43:15.786Z,53.48
2017-04-27T07:44:16.415Z,54.27
2017-04-27T07:45:17.061Z,54.24
2017-04-27T07:46:17.681Z,54.15
2017-04-27T07:47:18.319Z,53.79
2017-04-27T07:48:18.942Z,53.44
2017-04-27T07:49:19.578Z,52.76
2017-04-27T07:50:20.212Z,52.64
2017-04-27T07:51:20.882Z,52.74
2017-04-27T07:52:21.510Z,52.89
2017-04-27T07:53:22.143Z,51.95
2017-04-27T07:54:22.780Z,51.09
2017-04-27T07:55:23.405Z,50.78
2017-04-27T07:56:24.033Z,51.30
2017-04-27T07:57:24.669Z,52.33
2017-04-27T07:58:25.305Z,52.07
2017-04-27T07:59:25.938Z,52.07
2017-04-27T08:00:26.564Z,51.87
2017-04-27T08:01:27.178Z,52.59
2017-04-27T08:02:27.791Z,53.19
2017-04-27T08:03:28.437Z,52.42
2017-04-27T08:04:29.060Z,52.55
2017-04-27T08:05:29.690Z,51.92
2017-04-27T08:06:30.347Z,52.37
2017-04-27T08:07:30.973Z,53.97
2017-04-27T08:08:31.586Z,55.16
2017-04-27T08:09:32.213Z,55.64
2017-04-27T08:10:32.841Z,56.62
2017-04-27T08:11:33.455Z,56.08
2017-04-27T08:12:34.284Z,55.27
2017-04-27T08:13:34.912Z,54.50
2017-04-27T08:14:35.545Z,51.54
2017-04-27T08:15:36.163Z,50.93
2017-04-27T08:16:36.836Z,50.74
2017-04-27T08:17:37.453Z,49.66
2017-04-27T08:18:38.081Z,49.31
2017-04-27T08:19:38.711Z,49.52
2017-04-27T08:20:39.342Z,48.75
2017-04-27T08:21:39.972Z,48.88
2017-04-27T08:22:40.601Z,48.88
2017-04-27T08:23:41.232Z,49.43
2017-04-27T08:24:42.083Z,49.55
2017-04-27T08:25:42.703Z,49.43
2017-04-27T08:26:43.323Z,50.20
2017-04-27T08:27:43.941Z,50.56
2017-04-27T08:28:44.691Z,51.32
2017-04-27T08:29:45.307Z,51.13
2017-04-27T08:30:45.933Z,50.96
2017-04-27T08:31:46.561Z,50.41
2017-04-27T08:32:47.181Z,49.76
2017-04-27T08:33:47.812Z,48.78
2017-04-27T08:34:48.426Z,48.61
2017-04-27T08:35:49.042Z,48.44
2017-04-27T08:36:49.660Z,48.44
2017-04-27T08:37:50.288Z,47.08
2017-04-27T08:38:50.915Z,47.46
2017-04-27T08:39:51.545Z,46.72
2017-04-27T08:40:52.216Z,47.20
2017-04-27T08:41:52.845Z,46.36
2017-04-27T08:42:53.493Z,46.17
2017-04-27T08:43:54.114Z,46.09
2017-04-27T08:44:54.743Z,45.61
2017-04-27T08:45:55.422Z,45.04
2017-04-27T08:46:56.057Z,44.94
2017-04-27T08:47:56.672Z,45.04
2017-04-27T08:48:57.288Z,44.23
2017-04-27T08:49:57.924Z,44.85
2017-04-27T08:50:58.600Z,45.31
2017-04-27T08:51:59.223Z,46.91
2017-04-27T08:52:59.858Z,48.33
2017-04-27T08:54:00.604Z,48.97
2017-04-27T08:55:01.234Z,49.64
2017-04-27T08:56:01.909Z,50.76
2017-04-27T08:57:02.543Z,51.31
2017-04-27T08:58:03.188Z,51.81
2017-04-27T08:59:03.849Z,51.29
2017-04-27T09:00:04.455Z,49.98
2017-04-27T09:01:05.339Z,48.64
2017-04-27T09:02:05.967Z,48.23
2017-04-27T09:03:07.783Z,48.04
2017-04-27T09:04:08.417Z,48.13
2017-04-27T09:05:09.045Z,47.68
2017-04-27T09:06:09.728Z,47.61
2017-04-27T09:07:10.340Z,46.84
2017-04-27T09:08:12.175Z,46.26
2017-04-27T09:09:12.811Z,47.51
2017-04-27T09:10:13.443Z,47.32
2017-04-27T09:11:14.128Z,47.37
2017-04-27T09:12:14.743Z,46.43
2017-04-27T09:13:15.377Z,45.21
2017-04-27T09:14:16.008Z,44.75
2017-04-27T09:15:16.628Z,44.54
2017-04-27T09:16:17.258Z,45.09
2017-04-27T09:17:18.112Z,44.30
2017-04-27T09:18:19.293Z,44.93
2017-04-27T09:19:19.930Z,46.17
2017-04-27T09:20:20.550Z,46.75
2017-04-27T09:21:21.177Z,47.39
2017-04-27T09:22:21.786Z,48.04
2017-04-27T09:23:22.397Z,48.11
2017-04-27T09:24:23.016Z,49.14
2017-04-27T09:25:23.639Z,50.29
2017-04-27T09:26:24.318Z,50.31
2017-04-27T09:27:24.945Z,50.05
2017-04-27T09:28:25.570Z,49.31
2017-04-27T09:29:26.187Z,48.25
2017-04-27T09:30:26.805Z,47.49
2017-04-27T09:31:27.468Z,47.01
2017-04-27T09:32:28.096Z,47.61
2017-04-27T09:33:28.721Z,47.73
2017-04-27T09:34:29.336Z,45.69
2017-04-27T09:35:29.959Z,45.02
2017-04-27T09:36:30.587Z,44.66
2017-04-27T09:37:31.217Z,44.11
2017-04-27T09:38:31.829Z,43.63
2017-04-27T09:39:32.473Z,44.11
2017-04-27T09:40:33.085Z,44.80
2017-04-27T09:41:33.699Z,44.68
2017-04-27T09:42:34.325Z,45.23
2017-04-27T09:43:34.955Z,45.62
2017-04-27T09:44:35.579Z,46.22
2017-04-27T09:45:36.202Z,45.45
2017-04-27T09:46:36.830Z,45.14
2017-04-27T09:47:37.444Z,44.95
2017-04-27T09:48:38.058Z,44.85
2017-04-27T09:49:38.681Z,44.85
2017-04-27T09:50:39.300Z,44.76
2017-04-27T09:51:39.915Z,44.47
2017-04-27T09:52:40.547Z,44.37
2017-04-27T09:53:41.177Z,42.94
2017-04-27T09:54:41.805Z,42.46
2017-04-27T09:55:42.432Z,42.36
2017-04-27T09:56:43.067Z,42.65
2017-04-27T09:57:43.703Z,42.65
2017-04-27T09:58:44.334Z,43.80
2017-04-27T09:59:44.963Z,44.37
2017-04-27T10:00:45.638Z,44.76
2017-04-27T10:01:46.269Z,44.83
2017-04-27T10:02:46.896Z,44.95
2017-04-27T10:03:47.524Z,44.27
2017-04-27T10:04:48.147Z,44.59
2017-04-27T10:05:48.774Z,44.30
2017-04-27T10:06:49.406Z,44.11
2017-04-27T10:07:50.034Z,43.82
2017-04-27T10:08:50.664Z,43.63
2017-04-27T10:09:51.290Z,43.05
2017-04-27T10:10:51.924Z,43.13
2017-04-27T10:11:52.536Z,43.01
2017-04-27T10:12:53.150Z,42.90
2017-04-27T10:13:53.783Z,43.85
2017-04-27T10:14:54.389Z,43.66
2017-04-27T10:15:55.017Z,44.43
2017-04-27T10:16:55.633Z,44.71
2017-04-27T10:17:56.260Z,43.97
2017-04-27T10:18:56.874Z,43.39
2017-04-27T10:19:57.497Z,43.59
2017-04-27T10:20:58.115Z,44.18
2017-04-27T10:21:58.743Z,44.35
2017-04-27T10:22:59.382Z,44.83
2017-04-27T10:24:00.020Z,44.35
2017-04-27T10:25:00.649Z,44.54
2017-04-27T10:26:01.293Z,44.16
2017-04-27T10:27:01.983Z,43.95
2017-04-27T10:28:02.609Z,44.79
2017-04-27T10:29:03.232Z,44.98
2017-04-27T10:30:03.903Z,45.48
2017-04-27T10:31:04.531Z,46.12
2017-04-27T10:32:05.158Z,46.30
2017-04-27T10:33:05.786Z,46.17
2017-04-27T10:34:06.409Z,47.03
2017-04-27T10:35:07.021Z,47.49
2017-04-27T10:36:07.648Z,48.25
2017-04-27T10:37:08.254Z,48.28
2017-04-27T10:38:08.877Z,48.25
2017-04-27T10:39:09.497Z,49.11
2017-04-27T10:40:10.165Z,48.25
2017-04-27T10:41:10.790Z,48.25
2017-04-27T10:42:11.416Z,47.97
2017-04-27T10:43:12.035Z,47.49
2017-04-27T10:44:12.646Z,47.58
2017-04-27T10:45:13.352Z,48.23
2017-04-27T10:46:13.963Z,47.37
2017-04-27T10:47:14.568Z,47.08
2017-04-27T10:48:15.387Z,47.18
2017-04-27T10:49:15.993Z,47.01
2017-04-27T10:50:16.602Z,46.06
2017-04-27T10:51:17.228Z,45.75
2017-04-27T10:52:17.850Z,45.65
2017-04-27T10:53:18.476Z,44.70
2017-04-27T10:54:19.085Z,44.24
2017-04-27T10:55:19.707Z,44.65
2017-04-27T10:56:20.332Z,44.09
2017-04-27T10:57:20.941Z,42.49
2017-04-27T10:58:21.556Z,41.36
2017-04-27T10:59:22.173Z,40.90
2017-04-27T11:00:22.848Z,40.54
2017-04-27T11:01:23.471Z,39.87
2017-04-27T11:02:24.096Z,39.79
2017-04-27T11:03:24.712Z,38.85
2017-04-27T11:04:25.340Z,38.56
2017-04-27T11:05:26.076Z,37.99
2017-04-27T11:06:26.688Z,38.20
2017-04-27T11:07:27.307Z,37.82
2017-04-27T11:08:27.936Z,37.34
2017-04-27T11:09:28.552Z,37.60
2017-04-27T11:10:29.177Z,38.16
2017-04-27T11:11:29.801Z,38.16
2017-04-27T11:12:30.439Z,38.81
2017-04-27T11:13:31.063Z,39.08
2017-04-27T11:14:31.693Z,39.65
2017-04-27T11:15:32.370Z,40.59
2017-04-27T11:16:32.988Z,41.36
2017-04-27T11:17:33.624Z,41.27
2017-04-27T11:18:34.235Z,41.91
2017-04-27T11:19:34.847Z,43.06
2017-04-27T11:20:35.459Z,42.76
2017-04-27T11:21:36.079Z,43.62
2017-04-27T11:22:36.705Z,43.79
2017-04-27T11:23:37.322Z,44.65
2017-04-27T11:24:37.927Z,44.65
2017-04-27T11:25:38.544Z,44.36
2017-04-27T11:26:39.163Z,44.84
2017-04-27T11:27:39.787Z,44.29
2017-04-27T11:28:40.407Z,44.04
2017-04-27T11:29:41.046Z,43.01
2017-04-27T11:30:41.688Z,42.63
2017-04-27T11:31:42.323Z,41.36
2017-04-27T11:32:42.942Z,41.67
2017-04-27T11:33:43.562Z,41.57
2017-04-27T11:34:44.186Z,41.00
2017-04-27T11:35:44.809Z,41.17
2017-04-27T11:36:49.527Z,41.94
2017-04-27T11:37:47.029Z,41.74
2017-04-27T11:38:47.640Z,41.57
2017-04-27T11:39:48.266Z,41.77
2017-04-27T11:40:48.929Z,41.71
2017-04-27T11:41:49.559Z,41.33
2017-04-27T11:42:50.169Z,40.27
2017-04-27T11:43:50.785Z,39.62
2017-04-27T11:44:51.435Z,39.35
2017-04-27T11:45:52.061Z,39.16
2017-04-27T11:46:52.689Z,38.51
2017-04-27T11:47:53.308Z,38.02
2017-04-27T11:48:53.922Z,36.20
2017-04-27T11:49:54.555Z,35.82
2017-04-27T11:50:55.171Z,35.93
2017-04-27T11:51:55.804Z,36.15
2017-04-27T11:52:56.426Z,35.08
2017-04-27T11:53:57.053Z,34.68
2017-04-27T11:54:57.678Z,34.49
2017-04-27T11:55:58.357Z,33.91
2017-04-27T11:56:58.988Z,33.93
2017-04-27T11:57:59.615Z,33.95
2017-04-27T11:59:00.235Z,33.93
2017-04-27T12:00:00.868Z,33.64
2017-04-27T12:01:01.499Z,33.66
2017-04-27T12:02:02.113Z,34.16
2017-04-27T12:03:02.732Z,33.67
2017-04-27T12:04:03.354Z,33.98
2017-04-27T12:05:03.976Z,33.42
2017-04-27T12:06:04.651Z,33.61
2017-04-27T12:07:05.503Z,33.29
2017-04-27T12:08:06.113Z,33.56
2017-04-27T12:09:06.746Z,34.03
2017-04-27T12:10:07.372Z,34.39
2017-04-27T12:11:08.225Z,35.63
2017-04-27T12:12:08.853Z,36.01
2017-04-27T12:13:09.477Z,36.70
2017-04-27T12:14:10.102Z,37.45
2017-04-27T12:15:10.713Z,38.10
2017-04-27T12:16:11.337Z,38.39
2017-04-27T12:17:11.958Z,38.79
2017-04-27T12:18:12.575Z,39.28
2017-04-27T12:19:13.203Z,39.28
2017-04-27T12:20:13.829Z,38.79
2017-04-27T12:21:14.454Z,38.91
2017-04-27T12:22:15.280Z,38.81
2017-04-27T12:23:15.929Z,38.70
2017-04-27T12:24:16.552Z,39.26
2017-04-27T12:25:17.322Z,39.62
2017-04-27T12:26:17.938Z,40.00
2017-04-27T12:27:18.568Z,39.60
2017-04-27T12:28:19.180Z,40.27
2017-04-27T12:29:19.940Z,40.84
2017-04-27T12:30:20.590Z,40.37
2017-04-27T12:31:21.274Z,39.64
2017-04-27T12:32:21.927Z,39.29
2017-04-27T12:33:22.552Z,37.08
2017-04-27T12:34:23.164Z,36.91
2017-04-27T12:35:23.794Z,36.24
2017-04-27T12:36:24.454Z,36.88
2017-04-27T12:37:25.076Z,37.53
2017-04-27T12:38:25.713Z,38.20
2017-04-27T12:39:26.325Z,37.91
2017-04-27T12:40:26.951Z,37.82
2017-04-27T12:41:27.627Z,38.09
2017-04-27T12:42:28.256Z,38.59
2017-04-27T12:43:28.880Z,38.49
2017-04-27T12:44:29.499Z,38.99
2017-04-27T12:45:30.127Z,38.24
2017-04-27T12:46:30.787Z,37.35
2017-04-27T12:47:31.413Z,37.53
2017-04-27T12:48:32.028Z,38.02
2017-04-27T12:49:32.661Z,38.04
2017-04-27T12:50:33.288Z,38.07
2017-04-27T12:51:33.927Z,38.34
2017-04-27T12:52:34.741Z,38.12
2017-04-27T12:53:35.567Z,38.02
2017-04-27T12:54:36.190Z,38.59
2017-04-27T12:55:36.867Z,38.56
2017-04-27T12:56:37.496Z,39.06
2017-04-27T12:57:38.120Z,38.87
2017-04-27T12:58:38.735Z,39.06
2017-04-27T12:59:39.358Z,38.99
2017-04-27T13:00:39.984Z,38.89